createdAt,value
2019-02-24T00:01:52.440Z,12.93
2019-02-24T00:06:55.855Z,12.27
2019-02-24T00:11:59.100Z,12.60
2019-02-24T00:17:02.579Z,11.30
2019-02-24T00:22:05.839Z,12.67
2019-02-24T00:27:09.199Z,11.57
2019-02-24T00:32:12.610Z,11.50
2019-02-24T00:37:16.071Z,13.30
2019-02-24T00:42:19.292Z,11.97
2019-02-24T00:47:22.748Z,13.10
2019-02-24T00:52:26.985Z,12.30
2019-02-24T00:57:30.698Z,12.60
2019-02-24T01:02:34.039Z,12.07
2019-02-24T01:07:37.426Z,12.27
2019-02-24T01:12:43.805Z,12.17
2019-02-24T01:17:53.203Z,11.93
2019-02-24T01:22:56.670Z,12.07
2019-02-24T01:28:03.157Z,12.77
2019-02-24T01:33:06.481Z,11.70
2019-02-24T01:38:09.984Z,12.90
2019-02-24T01:43:13.398Z,13.03
2019-02-24T01:48:16.759Z,12.57
2019-02-24T01:53:20.139Z,12.63
2019-02-24T01:58:34.991Z,13.13
2019-02-24T02:03:34.909Z,13.13
2019-02-24T02:08:38.277Z,12.97
2019-02-24T02:13:41.601Z,12.40
2019-02-24T02:18:47.783Z,13.20
2019-02-24T02:23:50.976Z,11.27
2019-02-24T02:28:54.182Z,13.23
2019-02-24T02:33:57.381Z,11.43
2019-02-24T02:39:00.565Z,11.50
2019-02-24T02:44:07.049Z,12.27
2019-02-24T02:49:10.564Z,13.00
2019-02-24T02:54:14.282Z,13.40
2019-02-24T02:59:17.550Z,12.53
2019-02-24T03:04:23.872Z,12.10
2019-02-24T03:09:27.593Z,12.70
2019-02-24T03:14:33.873Z,11.50
2019-02-24T03:19:40.461Z,11.40
2019-02-24T03:24:47.050Z,11.70
2019-02-24T03:29:50.283Z,11.37
2019-02-24T03:34:53.573Z,11.43
2019-02-24T03:39:59.876Z,12.43
2019-02-24T03:45:03.193Z,10.67
2019-02-24T03:50:06.515Z,11.60
2019-02-24T03:55:10.555Z,10.50
2019-02-24T04:00:17.041Z,11.03
2019-02-24T04:05:20.256Z,11.07
2019-02-24T04:10:36.096Z,12.07
2019-02-24T04:15:39.432Z,11.50
2019-02-24T04:20:42.739Z,12.10
2019-02-24T04:25:46.163Z,11.97
2019-02-24T04:30:52.617Z,11.67
2019-02-24T04:35:56.129Z,11.70
2019-02-24T04:40:59.379Z,11.53
2019-02-24T04:46:02.770Z,12.87
2019-02-24T04:51:09.130Z,12.33
2019-02-24T04:56:12.545Z,13.40
2019-02-24T05:01:15.883Z,12.77
2019-02-24T05:06:26.584Z,11.77
2019-02-24T05:11:32.946Z,12.57
2019-02-24T05:16:36.437Z,12.47
2019-02-24T05:21:39.699Z,12.40
2019-02-24T05:26:43.185Z,12.80
2019-02-24T05:31:46.571Z,11.83
2019-02-24T05:36:49.989Z,12.83
2019-02-24T05:41:53.218Z,13.10
2019-02-24T05:46:56.544Z,13.50
2019-02-24T05:52:00.021Z,13.00
2019-02-24T05:57:03.386Z,12.43
2019-02-24T06:02:06.776Z,12.80
2019-02-24T06:07:13.228Z,12.37
2019-02-24T06:12:25.931Z,11.80
2019-02-24T06:17:29.870Z,13.27
2019-02-24T06:22:35.897Z,12.50
2019-02-24T06:27:42.093Z,12.77
2019-02-24T06:32:45.448Z,12.83
2019-02-24T06:37:49.226Z,13.27
2019-02-24T06:42:52.578Z,15.20
2019-02-24T06:47:56.923Z,14.40
2019-02-24T06:53:06.097Z,13.80
2019-02-24T06:58:09.380Z,18.67
2019-02-24T07:03:12.709Z,14.93
2019-02-24T07:08:16.196Z,14.43
2019-02-24T07:13:19.432Z,15.60
2019-02-24T07:18:22.817Z,16.20
2019-02-24T07:23:26.229Z,15.63
2019-02-24T07:28:29.642Z,14.60
2019-02-24T07:33:36.127Z,15.20
2019-02-24T07:38:39.489Z,14.77
2019-02-24T07:43:46.242Z,15.17
2019-02-24T07:48:49.593Z,16.27
2019-02-24T07:53:56.128Z,15.47
2019-02-24T07:58:59.686Z,15.73
2019-02-24T08:04:03.082Z,16.20
2019-02-24T08:09:09.233Z,14.60
2019-02-24T08:14:12.599Z,16.10
2019-02-24T08:19:15.876Z,15.87
2019-02-24T08:24:19.056Z,14.90
2019-02-24T08:29:29.117Z,16.40
2019-02-24T08:34:32.582Z,14.87
2019-02-24T08:39:38.530Z,14.90
2019-02-24T08:44:44.587Z,15.17
2019-02-24T08:49:48.008Z,15.67
2019-02-24T08:54:51.421Z,16.00
2019-02-24T08:59:54.975Z,15.60
2019-02-24T09:04:58.416Z,14.80
2019-02-24T09:10:04.638Z,14.90
2019-02-24T09:15:08.445Z,14.70
2019-02-24T09:20:12.063Z,14.93
2019-02-24T09:25:15.796Z,14.90
2019-02-24T09:30:19.398Z,15.73
2019-02-24T09:35:22.884Z,15.77
2019-02-24T09:40:27.249Z,14.53
2019-02-24T09:45:30.519Z,13.93
2019-02-24T09:50:34.060Z,15.10
2019-02-24T09:55:37.871Z,14.60
2019-02-24T10:01:10.300Z,15.73
2019-02-24T10:06:12.836Z,14.83
2019-02-24T10:11:19.695Z,15.10
2019-02-24T10:16:24.773Z,15.40
2019-02-24T10:21:28.454Z,15.60
2019-02-24T10:26:31.656Z,15.23
2019-02-24T10:31:34.917Z,15.00
2019-02-24T10:36:42.817Z,13.43
2019-02-24T10:41:49.888Z,15.50
2019-02-24T10:46:52.725Z,16.07
2019-02-24T10:51:55.602Z,18.00
2019-02-24T10:56:58.656Z,16.20
2019-02-24T11:02:01.869Z,15.80
2019-02-24T11:07:04.816Z,16.27
2019-02-24T11:12:08.945Z,16.40
2019-02-24T11:17:14.669Z,16.00
2019-02-24T11:22:18.150Z,16.47
2019-02-24T11:27:26.853Z,17.47
2019-02-24T11:32:33.644Z,17.53
2019-02-24T11:37:37.361Z,17.17
2019-02-24T11:42:43.955Z,18.43
2019-02-24T11:47:49.433Z,18.40
2019-02-24T11:52:54.673Z,17.00
2019-02-24T11:58:06.278Z,16.60
2019-02-24T12:03:10.304Z,17.00
2019-02-24T12:08:19.269Z,16.13
2019-02-24T12:13:24.397Z,17.43
2019-02-24T12:18:28.220Z,17.20
2019-02-24T12:23:31.845Z,17.80
2019-02-24T12:28:35.564Z,16.67
2019-02-24T12:33:38.915Z,17.00
2019-02-24T12:38:42.336Z,17.23
2019-02-24T12:43:45.908Z,18.20
2019-02-24T12:48:53.412Z,19.00
2019-02-24T12:53:56.905Z,20.80
2019-02-24T12:59:01.983Z,18.50
2019-02-24T13:04:05.435Z,16.80
2019-02-24T13:09:10.193Z,17.43
2019-02-24T13:14:16.560Z,17.00
2019-02-24T13:19:23.101Z,16.60
2019-02-24T13:24:26.616Z,17.63
2019-02-24T13:29:33.201Z,16.50
2019-02-24T13:34:36.090Z,15.73
2019-02-24T13:39:42.030Z,16.23
2019-02-24T13:44:44.887Z,15.63
2019-02-24T13:49:47.717Z,16.27
2019-02-24T13:54:53.591Z,15.17
2019-02-24T13:59:59.772Z,15.30
2019-02-24T14:05:04.774Z,16.10
2019-02-24T14:10:08.959Z,15.13
2019-02-24T14:15:12.723Z,14.67
2019-02-24T14:20:16.294Z,14.27
2019-02-24T14:25:25.498Z,13.47
2019-02-24T14:30:28.902Z,13.23
2019-02-24T14:35:31.743Z,12.33
2019-02-24T14:40:35.046Z,11.57
2019-02-24T14:45:40.082Z,11.20
2019-02-24T14:50:46.655Z,12.30
2019-02-24T14:55:49.915Z,10.80
2019-02-24T15:00:53.445Z,11.67
2019-02-24T15:05:56.994Z,12.60
2019-02-24T15:11:02.554Z,11.70
2019-02-24T15:16:05.827Z,13.60
2019-02-24T15:21:09.177Z,12.93
2019-02-24T15:26:15.392Z,13.40
2019-02-24T15:31:18.217Z,12.87
2019-02-24T15:36:21.078Z,13.90
2019-02-24T15:41:29.790Z,14.10
2019-02-24T15:46:29.415Z,14.53
2019-02-24T15:51:33.242Z,14.80
2019-02-24T15:56:36.651Z,13.63
2019-02-24T16:01:46.207Z,13.87
2019-02-24T16:06:49.682Z,13.60
2019-02-24T16:11:53.172Z,12.70
2019-02-24T16:16:56.548Z,12.43
2019-02-24T16:22:00.062Z,12.37
2019-02-24T16:27:05.015Z,12.80
2019-02-24T16:32:07.673Z,12.87
2019-02-24T16:37:10.548Z,12.33
2019-02-24T16:42:13.421Z,12.37
2019-02-24T16:47:17.839Z,12.03
2019-02-24T16:52:21.188Z,11.90
2019-02-24T16:57:24.014Z,12.60
2019-02-24T17:02:33.202Z,10.90
2019-02-24T17:07:36.078Z,12.43
2019-02-24T17:12:39.554Z,12.03
2019-02-24T17:17:43.076Z,12.57
2019-02-24T17:22:46.485Z,12.50
2019-02-24T17:27:55.834Z,13.87
2019-02-24T17:32:59.110Z,15.93
2019-02-24T17:38:02.476Z,14.30
2019-02-24T17:43:07.211Z,13.87
2019-02-24T17:48:10.637Z,14.63
2019-02-24T17:53:16.312Z,14.47
2019-02-24T17:58:19.757Z,13.37
2019-02-24T18:03:23.272Z,14.10
2019-02-24T18:08:29.697Z,16.37
2019-02-24T18:13:33.211Z,15.57
2019-02-24T18:18:36.555Z,15.33
2019-02-24T18:23:39.996Z,14.53
2019-02-24T18:28:43.305Z,16.23
2019-02-24T18:33:49.793Z,18.10
2019-02-24T18:38:56.278Z,16.90
2019-02-24T18:44:02.506Z,16.10
2019-02-24T18:49:05.968Z,14.60
2019-02-24T18:54:09.220Z,15.80
2019-02-24T18:59:12.552Z,16.63
2019-02-24T19:04:18.096Z,17.30
2019-02-24T19:09:21.201Z,17.63
2019-02-24T19:14:23.999Z,17.90
2019-02-24T19:19:27.573Z,16.73
2019-02-24T19:24:31.023Z,18.13
2019-02-24T19:29:33.849Z,17.60
2019-02-24T19:34:37.218Z,15.63
2019-02-24T19:39:43.230Z,15.53
2019-02-24T19:44:49.707Z,16.93
2019-02-24T19:49:52.570Z,19.50
2019-02-24T19:54:55.438Z,19.70
2019-02-24T19:59:58.367Z,21.00
2019-02-24T20:05:01.703Z,17.87
2019-02-24T20:10:06.034Z,18.13
2019-02-24T20:15:10.592Z,21.37
2019-02-24T20:20:14.059Z,19.80
2019-02-24T20:25:22.677Z,18.40
2019-02-24T20:30:29.280Z,19.03
2019-02-24T20:35:32.758Z,16.17
2019-02-24T20:40:35.964Z,17.50
2019-02-24T20:45:41.362Z,16.63
2019-02-24T20:50:44.699Z,17.27
2019-02-24T20:55:48.004Z,16.90
2019-02-24T21:00:51.598Z,20.30
2019-02-24T21:05:55.010Z,19.43
2019-02-24T21:10:58.280Z,18.40
2019-02-24T21:16:01.839Z,26.07
2019-02-24T21:21:07.254Z,28.90
2019-02-24T21:26:10.710Z,26.40
2019-02-24T21:31:13.969Z,25.00
2019-02-24T21:36:17.468Z,23.70
2019-02-24T21:41:20.749Z,21.90
2019-02-24T21:46:23.980Z,20.57
2019-02-24T21:51:27.250Z,19.07
2019-02-24T21:56:39.619Z,19.17
2019-02-24T22:01:49.242Z,24.53
2019-02-24T22:06:53.169Z,24.30
2019-02-24T22:12:05.797Z,25.03
2019-02-24T22:17:09.163Z,21.37
2019-02-24T22:22:14.431Z,19.87
2019-02-24T22:27:17.878Z,19.10
2019-02-24T22:32:21.213Z,21.17
2019-02-24T22:37:24.534Z,20.57
2019-02-24T22:42:27.811Z,18.27
2019-02-24T22:47:34.187Z,18.40
2019-02-24T22:52:37.226Z,18.70
2019-02-24T22:57:40.648Z,18.90
2019-02-24T23:02:43.955Z,19.03
2019-02-24T23:07:47.388Z,18.27
2019-02-24T23:12:50.595Z,16.67
2019-02-24T23:17:56.822Z,16.60
2019-02-24T23:23:06.017Z,20.30
2019-02-24T23:28:09.413Z,20.80
2019-02-24T23:33:12.739Z,21.70
2019-02-24T23:38:16.038Z,20.37
2019-02-24T23:43:19.521Z,21.60
2019-02-24T23:48:25.284Z,18.40
2019-02-24T23:53:31.360Z,20.30
2019-02-24T23:58:34.897Z,16.50
